createdAt,value
2022-11-15T00:01:16.185Z,39.37
2022-11-15T00:03:45.979Z,34.77
2022-11-15T00:06:14.343Z,35.93
2022-11-15T00:08:42.450Z,37.00
2022-11-15T00:11:13.399Z,32.30
2022-11-15T00:13:41.546Z,35.30
2022-11-15T00:16:11.458Z,30.90
2022-11-15T00:18:40.081Z,32.70
2022-11-15T00:21:12.356Z,34.17
2022-11-15T00:23:40.465Z,34.20
2022-11-15T00:26:09.041Z,36.33
2022-11-15T00:28:37.107Z,36.37
2022-11-15T00:31:06.544Z,36.77
2022-11-15T00:33:35.129Z,36.60
2022-11-15T00:36:05.151Z,33.93
2022-11-15T00:38:35.680Z,37.17
2022-11-15T00:41:09.053Z,38.47
2022-11-15T00:43:37.953Z,38.77
2022-11-15T00:46:06.116Z,39.63
2022-11-15T00:48:34.510Z,39.50
2022-11-15T00:51:02.535Z,39.83
2022-11-15T00:53:30.967Z,43.10
2022-11-15T00:56:00.573Z,38.43
2022-11-15T00:58:28.956Z,44.33
2022-11-15T01:00:57.164Z,38.53
2022-11-15T01:03:25.276Z,40.60
2022-11-15T01:05:53.259Z,38.93
2022-11-15T01:08:21.297Z,44.53
2022-11-15T01:10:49.329Z,45.10
2022-11-15T01:13:18.883Z,38.07
2022-11-15T01:15:47.066Z,49.13
2022-11-15T01:18:15.165Z,43.50
2022-11-15T01:20:43.973Z,47.47
2022-11-15T01:23:12.152Z,46.20
2022-11-15T01:25:40.389Z,50.50
2022-11-15T01:28:08.423Z,53.27
2022-11-15T01:30:38.157Z,58.60
2022-11-15T01:33:06.191Z,53.37
2022-11-15T01:35:34.300Z,55.33
2022-11-15T01:38:02.282Z,62.17
2022-11-15T01:40:30.325Z,62.33
2022-11-15T01:42:58.383Z,63.10
2022-11-15T01:45:26.427Z,62.80
2022-11-15T01:47:56.522Z,65.20
2022-11-15T01:50:29.127Z,60.70
2022-11-15T01:52:57.553Z,62.53
2022-11-15T01:55:28.958Z,59.93
2022-11-15T01:58:00.982Z,61.93
2022-11-15T02:00:29.371Z,62.03
2022-11-15T02:02:58.952Z,69.93
2022-11-15T02:05:27.203Z,67.43
2022-11-15T02:07:56.376Z,71.37
2022-11-15T02:10:26.566Z,67.97
2022-11-15T02:12:55.521Z,64.57
2022-11-15T02:15:25.805Z,69.67
2022-11-15T02:18:12.005Z,69.43
2022-11-15T02:21:02.147Z,79.63
2022-11-15T02:23:56.133Z,64.50
2022-11-15T02:26:53.984Z,70.47
2022-11-15T02:29:32.847Z,71.37
2022-11-15T02:32:07.945Z,75.57
2022-11-15T02:34:44.916Z,74.67
2022-11-15T02:37:18.745Z,72.57
2022-11-15T02:39:53.635Z,74.13
2022-11-15T02:42:49.553Z,68.90
2022-11-15T02:45:23.894Z,77.63
2022-11-15T02:47:57.672Z,74.53
2022-11-15T02:50:30.530Z,70.80
2022-11-15T02:52:59.252Z,73.20
2022-11-15T02:55:30.558Z,73.60
2022-11-15T02:58:12.907Z,76.53
2022-11-15T03:00:46.232Z,76.23
2022-11-15T03:03:41.346Z,73.27
2022-11-15T03:06:21.950Z,71.07
2022-11-15T03:09:00.246Z,68.30
2022-11-15T03:11:29.965Z,81.73
2022-11-15T03:14:01.216Z,72.87
2022-11-15T03:16:36.379Z,80.40
2022-11-15T03:19:12.187Z,78.23
2022-11-15T03:21:42.660Z,73.30
2022-11-15T03:24:11.905Z,75.77
2022-11-15T03:26:43.006Z,76.83
2022-11-15T03:29:16.570Z,70.57
2022-11-15T03:31:51.818Z,76.90
2022-11-15T03:34:29.612Z,80.70
2022-11-15T03:36:58.274Z,78.13
2022-11-15T03:39:27.634Z,79.10
2022-11-15T03:42:03.709Z,75.00
2022-11-15T03:44:46.905Z,78.50
2022-11-15T03:47:20.516Z,76.90
2022-11-15T03:49:58.572Z,71.47
2022-11-15T03:52:27.200Z,84.30
2022-11-15T03:54:57.634Z,77.70
2022-11-15T03:57:28.968Z,74.63
2022-11-15T03:59:57.418Z,76.57
2022-11-15T04:02:26.047Z,72.53
2022-11-15T04:04:55.755Z,74.57
2022-11-15T04:07:24.234Z,76.40
2022-11-15T04:10:04.405Z,71.13
2022-11-15T04:12:33.032Z,71.00
2022-11-15T04:15:11.408Z,75.33
2022-11-15T04:17:41.527Z,67.33
2022-11-15T04:20:31.910Z,75.17
2022-11-15T04:23:19.348Z,76.77
2022-11-15T04:25:48.609Z,71.13
2022-11-15T04:28:16.862Z,81.80
2022-11-15T04:30:45.024Z,74.63
2022-11-15T04:33:13.107Z,83.10
2022-11-15T04:35:43.775Z,81.07
2022-11-15T04:38:12.409Z,71.33
2022-11-15T04:40:40.917Z,71.40
2022-11-15T04:43:09.109Z,67.70
2022-11-15T04:45:37.373Z,78.67
2022-11-15T04:48:06.004Z,69.23
2022-11-15T04:50:34.082Z,78.00
2022-11-15T04:53:03.459Z,72.87
2022-11-15T04:55:31.538Z,78.20
2022-11-15T04:58:01.271Z,82.93
2022-11-15T05:00:30.605Z,82.50
2022-11-15T05:03:16.352Z,80.47
2022-11-15T05:05:44.638Z,80.53
2022-11-15T05:08:14.049Z,90.17
2022-11-15T05:10:42.131Z,76.40
2022-11-15T05:13:10.248Z,79.57
2022-11-15T05:15:38.351Z,83.93
2022-11-15T05:18:06.537Z,83.93
2022-11-15T05:20:34.894Z,80.70
2022-11-15T05:23:03.378Z,75.27
2022-11-15T05:25:32.944Z,83.70
2022-11-15T05:28:01.005Z,86.33
2022-11-15T05:30:29.072Z,89.97
2022-11-15T05:32:57.572Z,85.23
2022-11-15T05:35:36.622Z,78.47
2022-11-15T05:38:05.490Z,90.63
2022-11-15T05:40:36.231Z,90.13
2022-11-15T05:43:06.139Z,92.77
2022-11-15T05:45:35.816Z,86.97
2022-11-15T05:48:07.522Z,81.43
2022-11-15T05:50:36.695Z,82.93
2022-11-15T05:53:05.590Z,82.47
2022-11-15T05:55:35.225Z,83.47
2022-11-15T05:58:03.521Z,76.67
2022-11-15T06:00:31.742Z,81.60
2022-11-15T06:02:59.792Z,87.20
2022-11-15T06:05:27.876Z,78.70
2022-11-15T06:07:59.758Z,90.63
2022-11-15T06:10:28.205Z,83.13
2022-11-15T06:13:01.369Z,84.30
2022-11-15T06:15:30.100Z,90.93
2022-11-15T06:17:59.428Z,85.30
2022-11-15T06:20:27.765Z,85.17
2022-11-15T06:22:59.340Z,85.37
2022-11-15T06:25:27.460Z,89.13
2022-11-15T06:27:57.529Z,86.40
2022-11-15T06:30:28.466Z,77.07
2022-11-15T06:33:02.642Z,93.77
2022-11-15T06:35:31.160Z,86.10
2022-11-15T06:38:04.599Z,80.17
2022-11-15T06:40:32.629Z,92.00
2022-11-15T06:43:01.499Z,97.13
2022-11-15T06:45:30.971Z,87.70
2022-11-15T06:47:59.484Z,91.40
2022-11-15T06:50:27.810Z,90.77
2022-11-15T06:52:56.180Z,91.53
2022-11-15T06:55:24.234Z,87.97
2022-11-15T06:57:54.043Z,93.67
2022-11-15T07:00:24.085Z,86.50
2022-11-15T07:02:53.525Z,99.20
2022-11-15T07:05:21.527Z,88.10
2022-11-15T07:07:54.453Z,111.47
2022-11-15T07:10:22.803Z,101.20
2022-11-15T07:12:51.085Z,104.70
2022-11-15T07:15:19.669Z,88.03
2022-11-15T07:17:47.963Z,89.60
2022-11-15T07:20:17.953Z,90.87
2022-11-15T07:22:46.966Z,94.50
2022-11-15T07:25:15.029Z,102.07
2022-11-15T07:27:43.439Z,86.57
2022-11-15T07:30:15.570Z,90.83
2022-11-15T07:32:43.798Z,93.83
2022-11-15T07:35:12.368Z,95.80
2022-11-15T07:37:41.778Z,98.43
2022-11-15T07:40:11.395Z,106.73
2022-11-15T07:42:54.642Z,90.27
2022-11-15T07:45:23.318Z,101.37
2022-11-15T07:47:52.145Z,77.70
2022-11-15T07:50:20.737Z,93.63
2022-11-15T07:52:55.134Z,90.80
2022-11-15T07:55:23.386Z,106.33
2022-11-15T07:57:51.564Z,93.10
2022-11-15T08:00:20.753Z,86.93
2022-11-15T08:02:48.961Z,88.27
2022-11-15T08:05:17.227Z,89.27
2022-11-15T08:07:45.298Z,91.13
2022-11-15T08:10:14.972Z,94.43
2022-11-15T08:12:43.168Z,88.77
2022-11-15T08:15:12.191Z,92.33
2022-11-15T08:17:40.399Z,91.23
2022-11-15T08:20:09.829Z,91.80
2022-11-15T08:22:37.892Z,94.17
2022-11-15T08:25:06.563Z,96.67
2022-11-15T08:27:36.167Z,93.00
2022-11-15T08:30:04.855Z,87.40
2022-11-15T08:32:33.290Z,89.23
2022-11-15T08:35:01.461Z,96.03
2022-11-15T08:37:29.578Z,89.97
2022-11-15T08:39:57.674Z,91.00
2022-11-15T08:42:25.768Z,96.90
2022-11-15T08:44:55.256Z,98.50
2022-11-15T08:47:23.417Z,91.20
2022-11-15T08:49:51.593Z,91.80
2022-11-15T08:52:19.849Z,97.47
2022-11-15T08:54:47.914Z,114.57
2022-11-15T08:57:16.397Z,92.53
2022-11-15T08:59:44.743Z,88.23
2022-11-15T09:02:16.364Z,99.93
2022-11-15T09:04:45.781Z,92.93
2022-11-15T09:07:14.115Z,94.97
2022-11-15T09:09:43.250Z,99.43
2022-11-15T09:12:11.462Z,104.20
2022-11-15T09:14:39.841Z,96.57
2022-11-15T09:17:10.634Z,104.27
2022-11-15T09:19:40.092Z,91.37
2022-11-15T09:22:09.309Z,88.83
2022-11-15T09:24:37.654Z,88.30
2022-11-15T09:27:05.794Z,115.03
2022-11-15T09:29:33.860Z,112.60
2022-11-15T09:32:01.980Z,95.77
2022-11-15T09:34:30.174Z,106.80
2022-11-15T09:36:59.843Z,107.47
2022-11-15T09:39:27.953Z,121.33
2022-11-15T09:42:20.159Z,100.23
2022-11-15T09:45:01.783Z,99.37
2022-11-15T09:47:48.917Z,105.50
2022-11-15T09:50:22.288Z,104.70
2022-11-15T09:52:51.748Z,89.27
2022-11-15T09:55:22.525Z,96.40
2022-11-15T09:57:56.416Z,101.80
2022-11-15T10:00:45.863Z,101.60
2022-11-15T10:03:17.004Z,87.57
2022-11-15T10:05:48.258Z,94.73
2022-11-15T10:08:33.484Z,79.80
2022-11-15T10:11:35.741Z,78.43
2022-11-15T10:13:54.687Z,71.07
2022-11-15T10:16:50.801Z,72.20
2022-11-15T10:19:25.821Z,78.13
2022-11-15T10:22:07.920Z,80.57
2022-11-15T10:24:42.233Z,74.80
2022-11-15T10:27:13.415Z,82.33
2022-11-15T10:29:46.280Z,76.30
2022-11-15T10:32:15.146Z,87.13
2022-11-15T10:34:43.963Z,83.67
2022-11-15T10:37:12.524Z,81.70
2022-11-15T10:39:42.357Z,86.03
2022-11-15T10:42:28.147Z,79.87
2022-11-15T10:44:56.830Z,76.60
2022-11-15T10:47:28.263Z,82.43
2022-11-15T10:49:59.525Z,84.37
2022-11-15T10:52:28.218Z,71.17
2022-11-15T10:55:01.595Z,69.70
2022-11-15T10:57:33.874Z,72.97
2022-11-15T11:00:04.928Z,76.67
2022-11-15T11:02:36.518Z,71.57
2022-11-15T11:05:06.141Z,74.17
2022-11-15T11:07:35.938Z,69.43
2022-11-15T11:10:49.150Z,82.33
2022-11-15T11:13:17.471Z,72.83
2022-11-15T11:15:49.211Z,80.73
2022-11-15T11:18:26.184Z,80.10
2022-11-15T11:21:01.010Z,79.90
2022-11-15T11:23:43.904Z,87.20
2022-11-15T11:26:34.664Z,79.90
2022-11-15T11:29:13.614Z,66.73
2022-11-15T11:31:49.666Z,66.07
2022-11-15T11:34:25.728Z,67.33
2022-11-15T11:37:03.824Z,69.00
2022-11-15T11:39:45.369Z,68.23
2022-11-15T11:42:26.139Z,74.17
2022-11-15T11:45:03.724Z,77.87
2022-11-15T11:47:35.697Z,69.37
2022-11-15T11:50:17.565Z,80.50
2022-11-15T11:52:57.396Z,76.60
2022-11-15T11:55:33.749Z,78.83
2022-11-15T11:58:09.611Z,73.53
2022-11-15T12:00:43.417Z,84.50
2022-11-15T12:03:16.202Z,88.97
2022-11-15T12:05:47.001Z,80.63
2022-11-15T12:08:30.345Z,74.53
2022-11-15T12:11:05.921Z,79.40
2022-11-15T12:13:37.790Z,77.13
2022-11-15T12:16:13.146Z,75.33
2022-11-15T12:18:46.756Z,76.30
2022-11-15T12:21:25.389Z,76.43
2022-11-15T12:24:01.458Z,84.53
2022-11-15T12:26:35.281Z,80.97
2022-11-15T12:29:11.793Z,77.53
2022-11-15T12:31:44.743Z,89.60
2022-11-15T12:34:31.857Z,93.07
2022-11-15T12:36:59.919Z,83.50
2022-11-15T12:40:04.090Z,78.80
2022-11-15T12:42:43.663Z,82.63
2022-11-15T12:48:43.230Z,85.30
2022-11-15T12:51:12.593Z,84.30
2022-11-15T12:53:40.621Z,93.53
2022-11-15T12:56:23.664Z,89.47
2022-11-15T12:58:58.106Z,90.37
2022-11-15T13:01:59.210Z,90.50
2022-11-15T13:04:30.033Z,90.00
2022-11-15T13:07:01.954Z,87.80
2022-11-15T13:09:56.484Z,100.53
2022-11-15T13:12:54.232Z,93.87
2022-11-15T13:15:57.683Z,81.30
2022-11-15T13:18:36.449Z,82.90
2022-11-15T13:21:29.533Z,94.60
2022-11-15T13:24:00.513Z,87.70
2022-11-15T13:26:28.934Z,86.60
2022-11-15T13:28:57.320Z,85.40
2022-11-15T13:31:30.047Z,93.50
2022-11-15T13:34:02.446Z,87.03
2022-11-15T13:36:36.263Z,83.33
2022-11-15T13:39:07.827Z,77.83
2022-11-15T13:41:37.636Z,78.32
2022-11-15T13:44:20.697Z,78.73
2022-11-15T13:46:49.316Z,67.43
2022-11-15T13:49:18.812Z,71.67
2022-11-15T13:51:51.494Z,77.20
2022-11-15T13:54:26.144Z,72.27
2022-11-15T13:56:57.393Z,74.50
2022-11-15T13:59:28.536Z,90.97
2022-11-15T14:01:58.766Z,87.47
2022-11-15T14:04:30.734Z,89.87
2022-11-15T14:07:00.776Z,76.10
2022-11-15T14:09:35.868Z,89.83
2022-11-15T14:12:23.934Z,82.17
2022-11-15T14:14:52.615Z,86.50
2022-11-15T14:17:39.771Z,95.07
2022-11-15T14:20:34.759Z,93.00
2022-11-15T14:23:04.833Z,100.13
2022-11-15T14:25:35.144Z,99.47
2022-11-15T14:28:34.411Z,86.53
2022-11-15T14:31:03.256Z,94.83
2022-11-15T14:33:34.038Z,81.57
2022-11-15T14:36:06.674Z,92.57
2022-11-15T14:38:36.055Z,83.63
2022-11-15T14:41:06.962Z,102.90
2022-11-15T14:43:35.206Z,87.17
2022-11-15T14:46:04.220Z,94.77
2022-11-15T14:48:33.100Z,73.10
2022-11-15T14:51:01.400Z,75.50
2022-11-15T14:53:29.516Z,72.73
2022-11-15T14:55:57.605Z,77.17
2022-11-15T14:58:27.231Z,61.77
2022-11-15T15:00:55.405Z,64.53
2022-11-15T15:03:23.607Z,73.43
2022-11-15T15:05:51.738Z,76.53
2022-11-15T15:08:19.853Z,82.90
2022-11-15T15:10:48.366Z,83.83
2022-11-15T15:13:19.785Z,77.07
2022-11-15T15:15:50.682Z,83.07
2022-11-15T15:18:20.751Z,90.60
2022-11-15T15:21:01.220Z,86.90
2022-11-15T15:23:31.879Z,90.23
2022-11-15T15:26:00.372Z,102.10
2022-11-15T15:28:34.034Z,93.27
2022-11-15T15:31:04.442Z,87.23
2022-11-15T15:33:32.770Z,89.20
2022-11-15T15:36:01.300Z,82.10
2022-11-15T15:38:29.697Z,90.10
2022-11-15T15:40:57.974Z,84.13
2022-11-15T15:43:26.027Z,74.67
2022-11-15T15:45:54.118Z,75.33
2022-11-15T15:48:23.613Z,73.43
2022-11-15T15:50:53.870Z,79.30
2022-11-15T15:53:21.949Z,71.43
2022-11-15T15:55:49.993Z,65.90
2022-11-15T15:58:18.021Z,70.07
2022-11-15T16:00:46.106Z,77.60
2022-11-15T16:03:14.195Z,72.63
2022-11-15T16:05:44.022Z,76.03
2022-11-15T16:08:20.149Z,80.73
2022-11-15T16:10:48.910Z,78.43
2022-11-15T16:13:17.447Z,76.17
2022-11-15T16:15:45.762Z,69.70
2022-11-15T16:18:18.626Z,74.80
2022-11-15T16:20:51.040Z,77.63
2022-11-15T16:23:21.085Z,78.77
2022-11-15T16:25:51.040Z,83.13
2022-11-15T16:28:21.509Z,76.17
2022-11-15T16:30:53.952Z,70.17
2022-11-15T16:33:25.276Z,70.97
2022-11-15T16:35:54.835Z,71.83
2022-11-15T16:38:23.052Z,68.60
2022-11-15T16:40:51.278Z,71.87
2022-11-15T16:43:19.564Z,71.70
2022-11-15T16:45:47.816Z,70.10
2022-11-15T16:48:23.732Z,66.50
2022-11-15T16:50:52.384Z,75.53
2022-11-15T16:53:21.929Z,70.73
2022-11-15T16:55:50.029Z,75.57
2022-11-15T16:58:18.238Z,76.67
2022-11-15T17:00:46.625Z,75.43
2022-11-15T17:03:14.794Z,70.53
2022-11-15T17:05:46.240Z,69.90
2022-11-15T17:08:18.373Z,71.40
2022-11-15T17:10:48.273Z,73.07
2022-11-15T17:13:16.593Z,74.57
2022-11-15T17:15:45.027Z,65.47
2022-11-15T17:18:15.539Z,63.77
2022-11-15T17:20:43.921Z,62.80
2022-11-15T17:23:16.271Z,64.30
2022-11-15T17:25:45.818Z,61.13
2022-11-15T17:28:15.347Z,62.37
2022-11-15T17:30:44.373Z,63.10
2022-11-15T17:33:12.541Z,61.53
2022-11-15T17:35:40.592Z,57.37
2022-11-15T17:38:08.613Z,69.23
2022-11-15T17:40:36.623Z,63.47
2022-11-15T17:43:06.753Z,56.63
2022-11-15T17:45:37.664Z,58.43
2022-11-15T17:48:05.930Z,58.20
2022-11-15T17:50:34.107Z,79.10
2022-11-15T17:53:02.332Z,83.87
2022-11-15T17:55:30.447Z,60.57
2022-11-15T17:57:58.523Z,69.63
2022-11-15T18:00:26.573Z,68.17
2022-11-15T18:02:58.367Z,64.07
2022-11-15T18:05:26.438Z,62.10
2022-11-15T18:07:54.586Z,67.20
2022-11-15T18:10:22.637Z,65.23
2022-11-15T18:12:50.635Z,60.23
2022-11-15T18:15:19.185Z,62.83
2022-11-15T18:17:47.263Z,66.03
2022-11-15T18:20:17.327Z,57.97
2022-11-15T18:22:45.329Z,59.53
2022-11-15T18:25:15.916Z,52.90
2022-11-15T18:27:44.180Z,51.80
2022-11-15T18:30:13.204Z,57.27
2022-11-15T18:32:41.314Z,50.83
2022-11-15T18:35:09.591Z,51.77
2022-11-15T18:37:39.134Z,57.17
2022-11-15T18:40:08.504Z,57.13
2022-11-15T18:42:36.554Z,54.20
2022-11-15T18:45:05.208Z,55.37
2022-11-15T18:47:33.418Z,62.00
2022-11-15T18:50:01.502Z,63.30
2022-11-15T18:52:29.663Z,55.13
2022-11-15T18:54:59.286Z,56.17
2022-11-15T18:57:27.363Z,55.53
2022-11-15T18:59:55.534Z,55.30
2022-11-15T19:02:23.740Z,63.60
2022-11-15T19:04:51.830Z,58.60
2022-11-15T19:07:19.932Z,62.67
2022-11-15T19:09:48.009Z,51.10
2022-11-15T19:12:17.566Z,52.03
2022-11-15T19:14:45.649Z,56.13
2022-11-15T19:17:13.685Z,54.23
2022-11-15T19:19:41.739Z,54.00
2022-11-15T19:22:09.777Z,57.17
2022-11-15T19:24:37.960Z,52.40
2022-11-15T19:27:06.212Z,55.20
2022-11-15T19:29:35.674Z,53.77
2022-11-15T19:32:05.331Z,54.83
2022-11-15T19:34:33.481Z,56.47
2022-11-15T19:37:03.280Z,52.50
2022-11-15T19:39:35.786Z,53.30
2022-11-15T19:42:06.457Z,51.77
2022-11-15T19:44:35.934Z,53.80
2022-11-15T19:47:04.031Z,55.70
2022-11-15T19:49:32.098Z,48.70
2022-11-15T19:52:00.158Z,51.17
2022-11-15T19:54:28.284Z,50.13
2022-11-15T19:56:57.158Z,52.10
2022-11-15T19:59:25.527Z,46.57
2022-11-15T20:01:55.289Z,48.07
2022-11-15T20:04:25.525Z,44.90
2022-11-15T20:06:53.753Z,62.60
2022-11-15T20:09:22.293Z,42.57
2022-11-15T20:11:50.369Z,44.47
2022-11-15T20:14:18.528Z,40.40
2022-11-15T20:16:51.486Z,45.63
2022-11-15T20:19:23.998Z,44.77
2022-11-15T20:21:52.604Z,40.57
2022-11-15T20:24:20.783Z,37.40
2022-11-15T20:26:49.282Z,42.50
2022-11-15T20:29:17.447Z,40.50
2022-11-15T20:31:45.625Z,44.63
2022-11-15T20:34:13.744Z,43.53
2022-11-15T20:36:43.234Z,40.43
2022-11-15T20:39:11.346Z,41.70
2022-11-15T20:41:39.506Z,36.67
2022-11-15T20:44:07.637Z,38.23
2022-11-15T20:46:40.609Z,38.90
2022-11-15T20:49:08.697Z,39.10
2022-11-15T20:51:37.004Z,35.87
2022-11-15T20:54:12.621Z,37.67
2022-11-15T20:56:43.503Z,37.30
2022-11-15T20:59:11.662Z,44.83
2022-11-15T21:01:39.773Z,43.23
2022-11-15T21:04:07.958Z,41.73
2022-11-15T21:06:36.106Z,39.83
2022-11-15T21:09:21.856Z,37.70
2022-11-15T21:12:09.060Z,37.63
2022-11-15T21:14:37.354Z,40.77
2022-11-15T21:17:05.739Z,45.23
2022-11-15T21:19:37.294Z,45.27
2022-11-15T21:22:07.224Z,49.33
2022-11-15T21:24:35.445Z,38.33
2022-11-15T21:27:05.567Z,50.47
2022-11-15T21:29:39.697Z,43.33
2022-11-15T21:32:09.906Z,39.23
2022-11-15T21:34:39.037Z,43.50
2022-11-15T21:37:07.796Z,40.80
2022-11-15T21:39:36.580Z,44.93
2022-11-15T21:42:06.506Z,50.33
2022-11-15T21:44:35.005Z,42.13
2022-11-15T21:47:03.347Z,46.67
2022-11-15T21:49:31.929Z,49.93
2022-11-15T21:52:00.052Z,51.87
2022-11-15T21:54:28.137Z,47.60
2022-11-15T21:56:56.183Z,48.47
2022-11-15T21:59:25.830Z,48.97
2022-11-15T22:02:11.157Z,49.40
2022-11-15T22:07:25.073Z,46.20
2022-11-15T22:09:53.553Z,47.90
2022-11-15T22:12:25.753Z,42.00
2022-11-15T22:14:58.425Z,48.10
2022-11-15T22:17:46.772Z,50.00
2022-11-15T22:20:45.512Z,54.40
2022-11-15T22:23:04.151Z,54.07
2022-11-15T22:25:33.753Z,47.80
2022-11-15T22:28:01.987Z,51.23
2022-11-15T22:30:31.607Z,49.10
2022-11-15T22:32:59.852Z,52.67
2022-11-15T22:35:28.092Z,51.30
2022-11-15T22:37:56.326Z,55.00
2022-11-15T22:40:24.553Z,49.87
2022-11-15T22:42:52.730Z,55.00
2022-11-15T22:45:20.944Z,54.00
2022-11-15T22:47:50.493Z,56.60
2022-11-15T22:50:18.948Z,53.00
2022-11-15T22:52:48.286Z,55.97
2022-11-15T22:55:16.408Z,60.90
2022-11-15T22:57:44.770Z,66.50
2022-11-15T23:00:15.919Z,60.03
2022-11-15T23:02:44.003Z,62.20
2022-11-15T23:05:14.344Z,65.70
2022-11-15T23:07:42.870Z,54.77
2022-11-15T23:10:28.843Z,65.13
2022-11-15T23:13:14.345Z,56.80
2022-11-15T23:16:00.136Z,56.17
2022-11-15T23:18:28.922Z,56.73
2022-11-15T23:20:58.546Z,53.43
2022-11-15T23:23:25.721Z,46.43
2022-11-15T23:25:59.901Z,52.13
2022-11-15T23:28:28.077Z,52.37
2022-11-15T23:31:13.823Z,54.30
2022-11-15T23:34:00.254Z,50.90
2022-11-15T23:36:30.788Z,55.07
2022-11-15T23:38:58.953Z,52.27
2022-11-15T23:41:27.126Z,47.93
2022-11-15T23:43:55.294Z,51.77
2022-11-15T23:46:23.473Z,50.03
2022-11-15T23:48:51.536Z,51.20
2022-11-15T23:51:19.799Z,47.80
2022-11-15T23:53:49.299Z,48.87
2022-11-15T23:56:18.755Z,49.77
2022-11-15T23:58:47.522Z,52.63
